Papuan Chief — VRRC — position and weather

sailwx.info

Track history (hours):
 
Tides and Currents Weather Stations Pressure Air Temp Water Temp Dewpoint Dewpoint Depression Visibility Wind Speed Wind Dir Waves Ship Positions

Papuan Chief

Last reported at 2017-Nov-20 00:28 UTC. Time now 2017-Nov-24 00:23 UTC.
Position S 18°07' E 178°24'.

Length 158.1 m; beam 22 m; draft 7.8 m.

Type: Ship (hazmat cat D). MMSI: 477061000.

Date/timePositionNaut miles runAvg speedWind from/ knotsBaromVisibWave heightAir tempDewpointWater temp
2017-Nov-20 00:28S 18°07' E 178°24'0 0.1
2017-Nov-19 23:58S 18°07' E 178°24'0 0.0
2017-Nov-19 23:28S 18°07' E 178°24'0 0.1
2017-Nov-19 22:58S 18°07' E 178°24'0 0.1
2017-Nov-19 22:28S 18°07' E 178°24'0 0.0
2017-Nov-19 21:58S 18°07' E 178°24'0 0.1
2017-Nov-19 21:28S 18°07' E 178°24'0 0.0
2017-Nov-19 20:58S 18°07' E 178°24'0 0.2
2017-Nov-19 20:28S 18°07' E 178°24'0 0.1
2017-Nov-19 19:58S 18°08' E 178°24'0 0.0
2017-Nov-19 19:28S 18°08' E 178°24'0 0.1
2017-Nov-19 18:58S 18°08' E 178°24'0 0.1
2017-Nov-19 18:28S 18°08' E 178°24'0 0.1
2017-Nov-19 17:58S 18°08' E 178°24'0 0.0
2017-Nov-19 17:28S 18°08' E 178°24'0 0.0
2017-Nov-19 16:58S 18°08' E 178°24'0 0.0
2017-Nov-19 16:28S 18°08' E 178°24'0 0.0
2017-Nov-19 15:58S 18°08' E 178°24'0 0.0
2017-Nov-19 15:28S 18°08' E 178°24'0 0.0
2017-Nov-19 14:58S 18°08' E 178°24'0 0.1
2017-Nov-19 14:28S 18°08' E 178°24'0 0.1
2017-Nov-19 13:58S 18°07' E 178°24'0 0.0
2017-Nov-19 13:28S 18°07' E 178°24'0 0.1
2017-Nov-19 12:58S 18°07' E 178°24'0 0.2
2017-Nov-19 12:28S 18°07' E 178°24'0 0.0
2017-Nov-19 11:58S 18°07' E 178°24'0 0.0
2017-Nov-19 11:28S 18°07' E 178°24'0 0.0
2017-Nov-19 10:58S 18°07' E 178°24'0 0.1
2017-Nov-19 10:28S 18°07' E 178°24'0 0.1
2017-Nov-19 09:58S 18°07' E 178°24'0 0.1
2017-Nov-19 09:28S 18°07' E 178°24'0 0.1
2017-Nov-19 08:58S 18°07' E 178°24'0 0.1
2017-Nov-19 08:28S 18°07' E 178°24'0 0.2
2017-Nov-19 07:58S 18°07' E 178°24'0 0.0
2017-Nov-19 07:28S 18°07' E 178°24'0 0.1
2017-Nov-19 06:58S 18°07' E 178°24'0 0.1
2017-Nov-19 06:28S 18°07' E 178°24'0 0.1
2017-Nov-19 05:58S 18°07' E 178°24'0 0.1
2017-Nov-19 05:28S 18°07' E 178°24'0 0.1
2017-Nov-19 04:58S 18°07' E 178°24'0 0.1
2017-Nov-19 04:28S 18°07' E 178°24'0 0.0
2017-Nov-19 03:58S 18°07' E 178°24'0 0.0
2017-Nov-19 03:28S 18°07' E 178°24'0 0.0
2017-Nov-19 03:00S 18°07' E 178°24'0 0.7
2017-Nov-19 02:30S 18°08' E 178°24'4 8.2
2017-Nov-19 02:01S 18°12' E 178°23'4 8.3
2017-Nov-19 01:31S 18°15' E 178°21'5 9.3
2017-Nov-19 01:00S 18°20' E 178°19'69414.3
2017-Nov-17 00:27S 22°24' E 166°46'714.4
2017-Nov-16 23:59S 22°23' E 166°39'714.1
2017-Nov-16 23:30S 22°21' E 166°32'713.9
2017-Nov-16 23:00S 22°18' E 166°25'3 6.7
2017-Nov-16 22:31S 22°15' E 166°25'1 2.7
2017-Nov-16 22:00S 22°16' E 166°26'0 0.0
2017-Nov-16 21:30S 22°16' E 166°26'0 0.0
2017-Nov-16 21:00S 22°16' E 166°26'0 0.0
2017-Nov-16 20:30S 22°16' E 166°26'0 0.0
2017-Nov-16 20:00S 22°16' E 166°26'0 0.0
2017-Nov-16 19:30S 22°16' E 166°26'0 0.0
2017-Nov-16 18:54S 22°16' E 166°26'0 0.0
2017-Nov-16 18:30S 22°16' E 166°26'0 0.0
2017-Nov-16 17:57S 22°16' E 166°26'0 0.0
2017-Nov-16 17:30S 22°16' E 166°26'0 0.0
2017-Nov-16 16:57S 22°16' E 166°26'0 0.0
2017-Nov-16 16:27S 22°16' E 166°26'0 0.0
2017-Nov-16 16:00S 22°16' E 166°26'0 0.0
2017-Nov-16 15:30S 22°16' E 166°26'0 0.0
2017-Nov-16 15:00S 22°16' E 166°26'0 0.0
2017-Nov-16 14:27S 22°16' E 166°26'0 0.0
2017-Nov-16 14:00S 22°16' E 166°26'0 0.0
2017-Nov-16 13:30S 22°16' E 166°26'0 0.0
2017-Nov-16 13:00S 22°16' E 166°26'0 0.0
2017-Nov-16 12:30S 22°16' E 166°26'0 0.0
2017-Nov-16 12:00S 22°16' E 166°26'0 0.0
2017-Nov-16 11:30S 22°16' E 166°26'0 0.0
2017-Nov-16 11:00S 22°16' E 166°26'0 0.0
2017-Nov-16 10:27S 22°16' E 166°26'0 0.0
2017-Nov-16 10:00S 22°16' E 166°26'0 0.0
2017-Nov-16 09:30S 22°16' E 166°26'0 0.0
2017-Nov-16 09:00S 22°16' E 166°26'0 0.0
2017-Nov-16 08:30S 22°16' E 166°26'0 0.2
2017-Nov-16 08:00S 22°16' E 166°26'2 3.1
2017-Nov-16 07:30S 22°15' E 166°25'2 3.4
2017-Nov-16 07:00S 22°15' E 166°23'5 9.9
2017-Nov-16 06:30S 22°19' E 166°26'510.0
2017-Nov-16 06:00S 22°21' E 166°31'510.1
2017-Nov-16 05:30S 22°22' E 166°37'510.0
2017-Nov-16 04:59S 22°23' E 166°42'4 0.1
2017-Nov-14 23:38S 22°24' E 166°47'513.4
2017-Nov-14 23:17S 22°23' E 166°42'413.2
2017-Nov-14 23:00S 22°22' E 166°38'713.4
2017-Nov-14 22:30S 22°21' E 166°31'713.5
2017-Nov-14 22:00S 22°18' E 166°24'612.6
2017-Nov-14 21:30S 22°20' E 166°17'510.2
2017-Nov-14 21:01S 22°23' E 166°13'4 7.9
2017-Nov-14 20:30S 22°24' E 166°09'4 8.0
2017-Nov-14 20:00S 22°25' E 166°05'  
2017-Nov-11 16:44S 26°48' E 153°11'411.4
2017-Nov-11 16:25S 26°52' E 153°09'513.0
2017-Nov-11 16:00S 26°56' E 153°13'612.5
2017-Nov-11 15:30S 27°02' E 153°15'611.9
2017-Nov-11 15:00S 27°07' E 153°20'510.3
2017-Nov-11 14:30S 27°12' E 153°18'713.2
2017-Nov-11 14:00S 27°17' E 153°14'611.7
2017-Nov-11 13:30S 27°22' E 153°10'0 0.3
2017-Nov-11 12:49S 27°22' E 153°10'0 0.0
2017-Nov-11 11:46S 27°22' E 153°10'0 0.0
2017-Nov-11 11:18S 27°22' E 153°10'0 0.0
2017-Nov-11 10:51S 27°22' E 153°10'0 0.0
2017-Nov-11 10:27S 27°22' E 153°10'0 0.0
2017-Nov-11 09:57S 27°22' E 153°10'0 0.0
2017-Nov-11 09:18S 27°22' E 153°10'0 0.0
2017-Nov-11 09:00S 27°22' E 153°10'0 0.0
2017-Nov-11 08:28S 27°22' E 153°10'0 0.0
2017-Nov-11 07:49S 27°22' E 153°10'0 0.0
2017-Nov-11 06:57S 27°22' E 153°10'0 0.0
2017-Nov-11 06:25S 27°22' E 153°10'0 0.0
2017-Nov-11 05:58S 27°22' E 153°10'0 0.0
2017-Nov-11 05:12S 27°22' E 153°10'0 0.0
2017-Nov-11 04:58S 27°22' E 153°10'0 0.0
2017-Nov-11 03:27S 27°22' E 153°10'0 0.0
2017-Nov-11 02:57S 27°22' E 153°10'0 0.0
2017-Nov-11 02:13S 27°22' E 153°10'0 0.0
2017-Nov-11 01:45S 27°22' E 153°10'0 0.0
2017-Nov-11 01:30S 27°22' E 153°10'0 0.0
2017-Nov-11 01:00S 27°22' E 153°10'0 0.0
2017-Nov-10 23:33S 27°22' E 153°10'0 0.0
2017-Nov-10 23:27S 27°22' E 153°10'0 0.0
2017-Nov-10 22:33S 27°22' E 153°10'0 0.0
2017-Nov-10 22:18S 27°22' E 153°10'0 0.0
2017-Nov-10 21:49S 27°22' E 153°10'0 0.0
2017-Nov-10 21:24S 27°22' E 153°10'0 0.0
2017-Nov-10 20:55S 27°22' E 153°10'0 0.0
2017-Nov-10 20:24S 27°22' E 153°10'0 0.0
2017-Nov-10 19:55S 27°22' E 153°10'0 0.0
2017-Nov-10 19:30S 27°22' E 153°10'0 0.4
2017-Nov-10 19:00S 27°22' E 153°10'4 8.8
2017-Nov-10 18:30S 27°18' E 153°13'612.0
2017-Nov-10 18:00S 27°13' E 153°17'612.8
2017-Nov-10 17:30S 27°08' E 153°21'713.0
2017-Nov-10 17:00S 27°03' E 153°17'612.8
2017-Nov-10 16:30S 26°57' E 153°13'713.6
2017-Nov-10 16:00S 26°52' E 153°09'10 4.2
2017-Nov-10 13:32S 26°47' E 153°20'0 9.7
2017-Nov-10 13:30S 26°47' E 153°20'19 9.2
2017-Nov-10 11:28S 26°59' E 153°36'6 6.9
2017-Nov-10 10:37S 27°04' E 153°38'1 7.8
2017-Nov-10 10:30S 27°05' E 153°38'9 7.9
2017-Nov-10 09:24S 27°14' E 153°39'6 7.5
2017-Nov-10 08:40S 27°19' E 153°39'3 7.2
2017-Nov-10 08:18S 27°22' E 153°39'2 7.2
2017-Nov-10 08:00S 27°24' E 153°39'4 7.2
2017-Nov-10 07:30S 27°28' E 153°40'4 7.5
2017-Nov-10 07:00S 27°31' E 153°40'4 7.6
2017-Nov-10 06:30S 27°35' E 153°41'4 7.7
2017-Nov-10 06:00S 27°39' E 153°42'4 7.9
2017-Nov-10 05:30S 27°43' E 153°42'5 9.6
2017-Nov-10 05:01S 27°48' E 153°41'5 9.5
2017-Nov-10 04:30S 27°52' E 153°41'5 9.8
2017-Nov-10 04:00S 27°57' E 153°42'510.1
2017-Nov-10 03:30S 28°02' E 153°42'510.0
2017-Nov-10 03:00S 28°07' E 153°42'5 9.8
2017-Nov-10 02:30S 28°12' E 153°42'5 9.8
2017-Nov-10 02:00S 28°17' E 153°43'5 9.9
2017-Nov-10 01:30S 28°22' E 153°43'5 9.8
2017-Nov-10 01:00S 28°27' E 153°43'  
Track history (hours):
 
Tides and Currents Weather Stations Pressure Air Temp Water Temp Dewpoint Dewpoint Depression Visibility Wind Speed Wind Dir Waves Ship Positions

Papuan Chief

Last reported at 2017-Nov-20 00:28 UTC. Time now 2017-Nov-24 00:23 UTC.
Position S 18°07' E 178°24'.

Length 158.1 m; beam 22 m; draft 7.8 m.

Type: Ship (hazmat cat D). MMSI: 477061000.

Date/timePositionNaut miles runAvg speedWind from/ knotsBaromVisibWave heightAir tempDewpointWater temp
2017-Nov-20 00:28S 18°07' E 178°24'0 0.1
2017-Nov-19 23:58S 18°07' E 178°24'0 0.0
2017-Nov-19 23:28S 18°07' E 178°24'0 0.1
2017-Nov-19 22:58S 18°07' E 178°24'0 0.1
2017-Nov-19 22:28S 18°07' E 178°24'0 0.0
2017-Nov-19 21:58S 18°07' E 178°24'0 0.1
2017-Nov-19 21:28S 18°07' E 178°24'0 0.0
2017-Nov-19 20:58S 18°07' E 178°24'0 0.2
2017-Nov-19 20:28S 18°07' E 178°24'0 0.1
2017-Nov-19 19:58S 18°08' E 178°24'0 0.0
2017-Nov-19 19:28S 18°08' E 178°24'0 0.1
2017-Nov-19 18:58S 18°08' E 178°24'0 0.1
2017-Nov-19 18:28S 18°08' E 178°24'0 0.1
2017-Nov-19 17:58S 18°08' E 178°24'0 0.0
2017-Nov-19 17:28S 18°08' E 178°24'0 0.0
2017-Nov-19 16:58S 18°08' E 178°24'0 0.0
2017-Nov-19 16:28S 18°08' E 178°24'0 0.0
2017-Nov-19 15:58S 18°08' E 178°24'0 0.0
2017-Nov-19 15:28S 18°08' E 178°24'0 0.0
2017-Nov-19 14:58S 18°08' E 178°24'0 0.1
2017-Nov-19 14:28S 18°08' E 178°24'0 0.1
2017-Nov-19 13:58S 18°07' E 178°24'0 0.0
2017-Nov-19 13:28S 18°07' E 178°24'0 0.1
2017-Nov-19 12:58S 18°07' E 178°24'0 0.2
2017-Nov-19 12:28S 18°07' E 178°24'0 0.0
2017-Nov-19 11:58S 18°07' E 178°24'0 0.0
2017-Nov-19 11:28S 18°07' E 178°24'0 0.0
2017-Nov-19 10:58S 18°07' E 178°24'0 0.1
2017-Nov-19 10:28S 18°07' E 178°24'0 0.1
2017-Nov-19 09:58S 18°07' E 178°24'0 0.1
2017-Nov-19 09:28S 18°07' E 178°24'0 0.1
2017-Nov-19 08:58S 18°07' E 178°24'0 0.1
2017-Nov-19 08:28S 18°07' E 178°24'0 0.2
2017-Nov-19 07:58S 18°07' E 178°24'0 0.0
2017-Nov-19 07:28S 18°07' E 178°24'0 0.1
2017-Nov-19 06:58S 18°07' E 178°24'0 0.1
2017-Nov-19 06:28S 18°07' E 178°24'0 0.1
2017-Nov-19 05:58S 18°07' E 178°24'0 0.1
2017-Nov-19 05:28S 18°07' E 178°24'0 0.1
2017-Nov-19 04:58S 18°07' E 178°24'0 0.1
2017-Nov-19 04:28S 18°07' E 178°24'0 0.0
2017-Nov-19 03:58S 18°07' E 178°24'0 0.0
2017-Nov-19 03:28S 18°07' E 178°24'0 0.0
2017-Nov-19 03:00S 18°07' E 178°24'0 0.7
2017-Nov-19 02:30S 18°08' E 178°24'4 8.2
2017-Nov-19 02:01S 18°12' E 178°23'4 8.3
2017-Nov-19 01:31S 18°15' E 178°21'5 9.3
2017-Nov-19 01:00S 18°20' E 178°19'69414.3
2017-Nov-17 00:27S 22°24' E 166°46'714.4
2017-Nov-16 23:59S 22°23' E 166°39'714.1
2017-Nov-16 23:30S 22°21' E 166°32'713.9
2017-Nov-16 23:00S 22°18' E 166°25'3 6.7
2017-Nov-16 22:31S 22°15' E 166°25'1 2.7
2017-Nov-16 22:00S 22°16' E 166°26'0 0.0
2017-Nov-16 21:30S 22°16' E 166°26'0 0.0
2017-Nov-16 21:00S 22°16' E 166°26'0 0.0
2017-Nov-16 20:30S 22°16' E 166°26'0 0.0
2017-Nov-16 20:00S 22°16' E 166°26'0 0.0
2017-Nov-16 19:30S 22°16' E 166°26'0 0.0
2017-Nov-16 18:54S 22°16' E 166°26'0 0.0
2017-Nov-16 18:30S 22°16' E 166°26'0 0.0
2017-Nov-16 17:57S 22°16' E 166°26'0 0.0
2017-Nov-16 17:30S 22°16' E 166°26'0 0.0
2017-Nov-16 16:57S 22°16' E 166°26'0 0.0
2017-Nov-16 16:27S 22°16' E 166°26'0 0.0
2017-Nov-16 16:00S 22°16' E 166°26'0 0.0
2017-Nov-16 15:30S 22°16' E 166°26'0 0.0
2017-Nov-16 15:00S 22°16' E 166°26'0 0.0
2017-Nov-16 14:27S 22°16' E 166°26'0 0.0
2017-Nov-16 14:00S 22°16' E 166°26'0 0.0
2017-Nov-16 13:30S 22°16' E 166°26'0 0.0
2017-Nov-16 13:00S 22°16' E 166°26'0 0.0
2017-Nov-16 12:30S 22°16' E 166°26'0 0.0
2017-Nov-16 12:00S 22°16' E 166°26'0 0.0
2017-Nov-16 11:30S 22°16' E 166°26'0 0.0
2017-Nov-16 11:00S 22°16' E 166°26'0 0.0
2017-Nov-16 10:27S 22°16' E 166°26'0 0.0
2017-Nov-16 10:00S 22°16' E 166°26'0 0.0
2017-Nov-16 09:30S 22°16' E 166°26'0 0.0
2017-Nov-16 09:00S 22°16' E 166°26'0 0.0
2017-Nov-16 08:30S 22°16' E 166°26'0 0.2
2017-Nov-16 08:00S 22°16' E 166°26'2 3.1
2017-Nov-16 07:30S 22°15' E 166°25'2 3.4
2017-Nov-16 07:00S 22°15' E 166°23'5 9.9
2017-Nov-16 06:30S 22°19' E 166°26'510.0
2017-Nov-16 06:00S 22°21' E 166°31'510.1
2017-Nov-16 05:30S 22°22' E 166°37'510.0
2017-Nov-16 04:59S 22°23' E 166°42'4 0.1
2017-Nov-14 23:38S 22°24' E 166°47'513.4
2017-Nov-14 23:17S 22°23' E 166°42'413.2
2017-Nov-14 23:00S 22°22' E 166°38'713.4
2017-Nov-14 22:30S 22°21' E 166°31'713.5
2017-Nov-14 22:00S 22°18' E 166°24'612.6
2017-Nov-14 21:30S 22°20' E 166°17'510.2
2017-Nov-14 21:01S 22°23' E 166°13'4 7.9
2017-Nov-14 20:30S 22°24' E 166°09'4 8.0
2017-Nov-14 20:00S 22°25' E 166°05'  
2017-Nov-11 16:44S 26°48' E 153°11'411.4
2017-Nov-11 16:25S 26°52' E 153°09'513.0
2017-Nov-11 16:00S 26°56' E 153°13'612.5
2017-Nov-11 15:30S 27°02' E 153°15'611.9
2017-Nov-11 15:00S 27°07' E 153°20'510.3
2017-Nov-11 14:30S 27°12' E 153°18'713.2
2017-Nov-11 14:00S 27°17' E 153°14'611.7
2017-Nov-11 13:30S 27°22' E 153°10'0 0.3
2017-Nov-11 12:49S 27°22' E 153°10'0 0.0
2017-Nov-11 11:46S 27°22' E 153°10'0 0.0
2017-Nov-11 11:18S 27°22' E 153°10'0 0.0
2017-Nov-11 10:51S 27°22' E 153°10'0 0.0
2017-Nov-11 10:27S 27°22' E 153°10'0 0.0
2017-Nov-11 09:57S 27°22' E 153°10'0 0.0
2017-Nov-11 09:18S 27°22' E 153°10'0 0.0
2017-Nov-11 09:00S 27°22' E 153°10'0 0.0
2017-Nov-11 08:28S 27°22' E 153°10'0 0.0
2017-Nov-11 07:49S 27°22' E 153°10'0 0.0
2017-Nov-11 06:57S 27°22' E 153°10'0 0.0
2017-Nov-11 06:25S 27°22' E 153°10'0 0.0
2017-Nov-11 05:58S 27°22' E 153°10'0 0.0
2017-Nov-11 05:12S 27°22' E 153°10'0 0.0
2017-Nov-11 04:58S 27°22' E 153°10'0 0.0
2017-Nov-11 03:27S 27°22' E 153°10'0 0.0
2017-Nov-11 02:57S 27°22' E 153°10'0 0.0
2017-Nov-11 02:13S 27°22' E 153°10'0 0.0
2017-Nov-11 01:45S 27°22' E 153°10'0 0.0
2017-Nov-11 01:30S 27°22' E 153°10'0 0.0
2017-Nov-11 01:00S 27°22' E 153°10'0 0.0
2017-Nov-10 23:33S 27°22' E 153°10'0 0.0
2017-Nov-10 23:27S 27°22' E 153°10'0 0.0
2017-Nov-10 22:33S 27°22' E 153°10'0 0.0
2017-Nov-10 22:18S 27°22' E 153°10'0 0.0
2017-Nov-10 21:49S 27°22' E 153°10'0 0.0
2017-Nov-10 21:24S 27°22' E 153°10'0 0.0
2017-Nov-10 20:55S 27°22' E 153°10'0 0.0
2017-Nov-10 20:24S 27°22' E 153°10'0 0.0
2017-Nov-10 19:55S 27°22' E 153°10'0 0.0
2017-Nov-10 19:30S 27°22' E 153°10'0 0.4
2017-Nov-10 19:00S 27°22' E 153°10'4 8.8
2017-Nov-10 18:30S 27°18' E 153°13'612.0
2017-Nov-10 18:00S 27°13' E 153°17'612.8
2017-Nov-10 17:30S 27°08' E 153°21'713.0
2017-Nov-10 17:00S 27°03' E 153°17'612.8
2017-Nov-10 16:30S 26°57' E 153°13'713.6
2017-Nov-10 16:00S 26°52' E 153°09'10 4.2
2017-Nov-10 13:32S 26°47' E 153°20'0 9.7
2017-Nov-10 13:30S 26°47' E 153°20'19 9.2
2017-Nov-10 11:28S 26°59' E 153°36'6 6.9
2017-Nov-10 10:37S 27°04' E 153°38'1 7.8
2017-Nov-10 10:30S 27°05' E 153°38'9 7.9
2017-Nov-10 09:24S 27°14' E 153°39'6 7.5
2017-Nov-10 08:40S 27°19' E 153°39'3 7.2
2017-Nov-10 08:18S 27°22' E 153°39'2 7.2
2017-Nov-10 08:00S 27°24' E 153°39'4 7.2
2017-Nov-10 07:30S 27°28' E 153°40'4 7.5
2017-Nov-10 07:00S 27°31' E 153°40'4 7.6
2017-Nov-10 06:30S 27°35' E 153°41'4 7.7
2017-Nov-10 06:00S 27°39' E 153°42'4 7.9
2017-Nov-10 05:30S 27°43' E 153°42'5 9.6
2017-Nov-10 05:01S 27°48' E 153°41'5 9.5
2017-Nov-10 04:30S 27°52' E 153°41'5 9.8
2017-Nov-10 04:00S 27°57' E 153°42'510.1
2017-Nov-10 03:30S 28°02' E 153°42'510.0
2017-Nov-10 03:00S 28°07' E 153°42'5 9.8
2017-Nov-10 02:30S 28°12' E 153°42'5 9.8
2017-Nov-10 02:00S 28°17' E 153°43'5 9.9
2017-Nov-10 01:30S 28°22' E 153°43'5 9.8
2017-Nov-10 01:00S 28°27' E 153°43'  

Dump ship's entire track history